E80

Alexander Municipal Airport

Belen, New Mexico, USA
METAR KE80 210515Z AUTO 13008KT 10SM CLR 25/10 A3020 RMK AO2 T02470096
Observed Flight Rules
Aug-21 @ 05:15 UTC (12 hours ago) Visual Flight Rules
Wind Visibility Clouds
130° at 8 knots 10 miles
  • Clear skies
Temperatures Readings
Current 25°C / 77°F
Dewpoint 10°C / 50°F
Humidity 39%
Altimeter 30.2" Hg
Pressure 1023 hPa
Elevation 1582
METAR KE80 210515Z AUTO 13008KT 10SM CLR 25/10 A3020 RMK AO2 T02470096
Observed Flight Rules
Aug-21 @ 05:15 UTC
(12 hours ago)
VFR
Wind Visibility
130° at 8 knots 10 miles
Clouds
  • Clear skies
Temperature Dewpoint
25°C / 77°F 10°C / 50°F
Humidity Altimeter Pressure
39% 30.2" Hg 1023 hPa